createdAt,value
2022-09-13T00:01:09.858Z,98776.00
2022-09-13T00:03:36.779Z,98779.50
2022-09-13T00:06:15.128Z,98779.38
2022-09-13T00:08:42.719Z,98776.72
2022-09-13T00:11:19.837Z,98768.66
2022-09-13T00:13:47.022Z,98767.72
2022-09-13T00:16:16.049Z,98764.22
2022-09-13T00:18:43.288Z,98770.28
2022-09-13T00:21:14.100Z,98771.22
2022-09-13T00:23:44.551Z,98773.66
2022-09-13T00:26:14.693Z,98771.84
2022-09-13T00:28:41.517Z,98771.75
2022-09-13T00:31:09.770Z,98767.31
2022-09-13T00:33:36.661Z,98776.00
2022-09-13T00:36:08.834Z,98772.41
2022-09-13T00:38:37.289Z,98763.66
2022-09-13T00:41:05.918Z,98761.78
2022-09-13T00:44:00.874Z,98758.25
2022-09-13T00:46:31.400Z,98759.22
2022-09-13T00:49:05.458Z,98762.72
2022-09-13T00:51:32.311Z,98767.72
2022-09-13T00:53:59.928Z,98779.09
2022-09-13T00:56:40.352Z,98771.94
2022-09-13T00:59:15.704Z,98766.53
2022-09-13T01:01:51.239Z,98769.19
2022-09-13T01:04:20.679Z,98760.38
2022-09-13T01:06:49.766Z,98767.31
2022-09-13T01:09:16.505Z,98765.28
2022-09-13T01:11:55.651Z,98763.34
2022-09-13T01:14:24.117Z,98771.31
2022-09-13T01:16:51.445Z,98768.34
2022-09-13T01:19:18.225Z,98768.66
2022-09-13T01:21:56.836Z,98765.81
2022-09-13T01:24:41.880Z,98760.38
2022-09-13T01:27:30.160Z,98770.91
2022-09-13T01:30:22.675Z,98760.28
2022-09-13T01:33:05.948Z,98770.59
2022-09-13T01:35:43.777Z,98765.28
2022-09-13T01:38:45.903Z,98765.16
2022-09-13T01:41:50.028Z,98759.84
2022-09-13T01:44:54.487Z,98760.47
2022-09-13T01:47:50.845Z,98754.31
2022-09-13T01:50:47.946Z,98754.31
2022-09-13T01:53:32.224Z,98745.72
2022-09-13T01:56:12.421Z,98745.84
2022-09-13T01:58:49.070Z,98742.41
2022-09-13T02:01:25.812Z,98744.97
2022-09-13T02:03:57.789Z,98749.22
2022-09-13T02:06:32.223Z,98747.50
2022-09-13T02:09:05.429Z,98751.03
2022-09-13T02:11:35.101Z,98748.50
2022-09-13T02:14:14.138Z,98746.47
2022-09-13T02:16:52.462Z,98749.13
2022-09-13T02:19:41.738Z,98750.94
2022-09-13T02:22:13.615Z,98744.63
2022-09-13T02:24:45.295Z,98744.84
2022-09-13T02:27:20.650Z,98749.22
2022-09-13T02:29:53.282Z,98751.88
2022-09-13T02:32:32.727Z,98747.19
2022-09-13T02:35:22.072Z,98744.75
2022-09-13T02:38:04.021Z,98744.44
2022-09-13T02:40:40.274Z,98745.50
2022-09-13T02:43:20.312Z,98739.22
2022-09-13T02:46:10.689Z,98737.41
2022-09-13T02:49:05.316Z,98734.88
2022-09-13T02:51:55.298Z,98736.56
2022-09-13T02:54:44.940Z,98737.41
2022-09-13T02:57:32.266Z,98747.81
2022-09-13T02:59:59.778Z,98745.06
2022-09-13T03:02:32.846Z,98748.69
2022-09-13T03:05:03.366Z,98745.84
2022-09-13T03:07:31.020Z,98747.19
2022-09-13T03:10:05.953Z,98747.19
2022-09-13T03:12:51.382Z,98736.78
2022-09-13T03:15:31.684Z,98739.22
2022-09-13T03:18:24.163Z,98744.44
2022-09-13T03:20:56.653Z,98745.38
2022-09-13T03:23:30.988Z,98737.09
2022-09-13T03:26:35.559Z,98743.72
2022-09-13T03:29:05.031Z,98749.00
2022-09-13T03:31:37.566Z,98741.97
2022-09-13T03:34:15.010Z,98740.72
2022-09-13T03:36:45.602Z,98738.28
2022-09-13T03:39:24.810Z,98738.69
2022-09-13T03:41:56.618Z,98742.28
2022-09-13T03:44:26.385Z,98741.22
2022-09-13T03:46:57.801Z,98738.56
2022-09-13T03:49:27.194Z,98745.38
2022-09-13T03:51:55.025Z,98745.38
2022-09-13T03:54:27.976Z,98748.88
2022-09-13T03:57:10.242Z,98746.84
2022-09-13T03:59:39.290Z,98749.41
2022-09-13T04:02:12.094Z,98745.03
2022-09-13T04:04:41.432Z,98745.59
2022-09-13T04:07:10.036Z,98740.72
2022-09-13T04:09:36.905Z,98751.13
2022-09-13T04:12:04.102Z,98758.22
2022-09-13T04:14:31.070Z,98754.63
2022-09-13T04:16:58.854Z,98761.66
2022-09-13T04:19:27.172Z,98753.69
2022-09-13T04:21:55.573Z,98761.66
2022-09-13T04:24:27.122Z,98757.31
2022-09-13T04:26:54.552Z,98764.84
2022-09-13T04:29:23.163Z,98764.84
2022-09-13T04:31:52.242Z,98766.00
2022-09-13T04:34:19.194Z,98766.22
2022-09-13T04:36:47.042Z,98758.66
2022-09-13T04:39:16.288Z,98757.50
2022-09-13T04:41:48.266Z,98764.84
2022-09-13T04:44:16.635Z,98771.63
2022-09-13T04:46:46.345Z,98774.59
2022-09-13T04:49:14.834Z,98773.34
2022-09-13T04:51:41.941Z,98774.59
2022-09-13T04:54:14.984Z,98777.63
2022-09-13T04:56:43.648Z,98778.13
2022-09-13T04:59:11.344Z,98773.56
2022-09-13T05:01:38.158Z,98787.47
2022-09-13T05:04:06.699Z,98784.91
2022-09-13T05:06:34.038Z,98776.84
2022-09-13T05:09:00.754Z,98773.34
2022-09-13T05:11:29.164Z,98780.16
2022-09-13T05:13:57.994Z,98776.63
2022-09-13T05:16:27.240Z,98782.16
2022-09-13T05:18:54.204Z,98779.06
2022-09-13T05:21:21.675Z,98786.84
2022-09-13T05:23:54.104Z,98789.16
2022-09-13T05:26:22.761Z,98788.22
2022-09-13T05:28:49.893Z,98792.78
2022-09-13T05:31:18.740Z,98781.75
2022-09-13T05:33:48.260Z,98788.03
2022-09-13T05:36:15.222Z,98779.59
2022-09-13T05:38:42.047Z,98790.44
2022-09-13T05:41:08.909Z,98787.25
2022-09-13T05:43:37.021Z,98796.09
2022-09-13T05:46:07.028Z,98794.59
2022-09-13T05:48:35.214Z,98795.13
2022-09-13T05:51:11.901Z,98790.22
2022-09-13T05:53:41.031Z,98792.91
2022-09-13T05:56:16.470Z,98798.09
2022-09-13T05:58:45.658Z,98804.06
2022-09-13T06:01:13.205Z,98805.56
2022-09-13T06:03:39.957Z,98799.72
2022-09-13T06:06:07.136Z,98815.53
2022-09-13T06:08:35.045Z,98806.50
2022-09-13T06:11:04.417Z,98820.88
2022-09-13T06:13:31.388Z,98818.09
2022-09-13T06:15:59.967Z,98812.78
2022-09-13T06:18:27.781Z,98820.66
2022-09-13T06:20:59.909Z,98822.00
2022-09-13T06:23:27.623Z,98825.44
2022-09-13T06:26:01.590Z,98829.34
2022-09-13T06:28:28.690Z,98825.84
2022-09-13T06:31:02.389Z,98825.00
2022-09-13T06:33:29.575Z,98825.13
2022-09-13T06:36:00.488Z,98828.50
2022-09-13T06:38:27.214Z,98828.97
2022-09-13T06:41:06.383Z,98835.41
2022-09-13T06:43:34.175Z,98835.44
2022-09-13T06:46:08.802Z,98834.16
2022-09-13T06:48:38.952Z,98828.56
2022-09-13T06:51:08.849Z,98833.22
2022-09-13T06:53:36.916Z,98834.28
2022-09-13T06:56:15.352Z,98838.81
2022-09-13T06:58:44.081Z,98837.72
2022-09-13T07:01:24.039Z,98836.44
2022-09-13T07:03:53.103Z,98839.59
2022-09-13T07:06:31.223Z,98843.31
2022-09-13T07:08:59.985Z,98847.81
2022-09-13T07:11:30.306Z,98846.78
2022-09-13T07:13:59.066Z,98844.03
2022-09-13T07:16:28.408Z,98832.94
2022-09-13T07:18:57.336Z,98841.03
2022-09-13T07:21:24.647Z,98841.50
2022-09-13T07:23:53.054Z,98839.47
2022-09-13T07:26:19.895Z,98840.50
2022-09-13T07:28:49.454Z,98848.88
2022-09-13T07:31:20.897Z,98843.34
2022-09-13T07:33:52.907Z,98844.00
2022-09-13T07:36:20.031Z,98831.44
2022-09-13T07:38:46.786Z,98838.97
2022-09-13T07:41:17.193Z,98847.34
2022-09-13T07:43:44.115Z,98838.34
2022-09-13T07:46:15.271Z,98846.56
2022-09-13T07:48:43.605Z,98844.69
2022-09-13T07:51:12.536Z,98846.19
2022-09-13T07:53:41.656Z,98854.91
2022-09-13T07:56:20.548Z,98850.38
2022-09-13T07:58:50.257Z,98852.81
2022-09-13T08:01:18.823Z,98843.75
2022-09-13T08:03:54.360Z,98855.19
2022-09-13T08:06:22.022Z,98860.84
2022-09-13T08:08:48.963Z,98849.91
2022-09-13T08:11:20.999Z,98856.31
2022-09-13T08:13:49.242Z,98854.84
2022-09-13T08:16:18.281Z,98860.41
2022-09-13T08:18:45.875Z,98850.81
2022-09-13T08:21:13.626Z,98861.09
2022-09-13T08:23:40.630Z,98852.63
2022-09-13T08:26:08.224Z,98859.97
2022-09-13T08:28:36.540Z,98861.19
2022-09-13T08:31:18.226Z,98859.03
2022-09-13T08:33:46.852Z,98854.97
2022-09-13T08:36:15.018Z,98850.94
2022-09-13T08:38:49.813Z,98849.69
2022-09-13T08:41:34.816Z,98844.56
2022-09-13T08:44:08.457Z,98845.31
2022-09-13T08:46:40.414Z,98844.59
2022-09-13T08:49:16.702Z,98851.03
2022-09-13T08:51:51.926Z,98847.75
2022-09-13T08:54:20.488Z,98849.53
2022-09-13T08:57:24.167Z,98838.72
2022-09-13T09:00:10.435Z,98845.81
2022-09-13T09:03:11.112Z,98844.13
2022-09-13T09:05:49.382Z,98848.81
2022-09-13T09:08:40.358Z,98849.38
2022-09-13T09:11:21.942Z,98850.00
2022-09-13T09:13:57.500Z,98849.41
2022-09-13T09:16:44.982Z,98851.19
2022-09-13T09:19:24.296Z,98854.47
2022-09-13T09:21:51.897Z,98854.63
2022-09-13T09:24:24.106Z,98849.72
2022-09-13T09:26:53.177Z,98847.56
2022-09-13T09:29:26.624Z,98850.25
2022-09-13T09:32:18.288Z,98850.69
2022-09-13T09:35:00.378Z,98850.19
2022-09-13T09:37:30.161Z,98850.31
2022-09-13T09:40:04.110Z,98841.06
2022-09-13T09:42:44.206Z,98848.56
2022-09-13T09:45:26.625Z,98830.84
2022-09-13T09:47:55.908Z,98841.72
2022-09-13T09:50:28.078Z,98835.38
2022-09-13T09:52:59.839Z,98835.66
2022-09-13T09:55:34.989Z,98832.97
2022-09-13T09:58:08.273Z,98839.97
2022-09-13T10:00:52.266Z,98831.31
2022-09-13T10:03:29.739Z,98837.84
2022-09-13T10:06:12.518Z,98841.72
2022-09-13T10:08:42.140Z,98838.19
2022-09-13T10:11:09.808Z,98833.38
2022-09-13T10:13:38.332Z,98838.28
2022-09-13T10:16:26.350Z,98838.31
2022-09-13T10:18:53.247Z,98837.41
2022-09-13T10:21:19.928Z,98832.63
2022-09-13T10:23:50.863Z,98835.16
2022-09-13T10:26:19.256Z,98839.78
2022-09-13T10:29:09.102Z,98836.53
2022-09-13T10:31:42.047Z,98830.91
2022-09-13T10:34:17.946Z,98828.66
2022-09-13T10:36:54.539Z,98826.47
2022-09-13T10:39:24.056Z,98832.00
2022-09-13T10:42:10.710Z,98837.81
2022-09-13T10:44:44.121Z,98831.75
2022-09-13T10:47:33.399Z,98834.16
2022-09-13T10:50:13.317Z,98831.56
2022-09-13T10:52:48.741Z,98838.53
2022-09-13T10:55:21.127Z,98836.22
2022-09-13T10:57:53.210Z,98840.88
2022-09-13T11:00:44.393Z,98843.56
2022-09-13T11:03:46.675Z,98842.88
2022-09-13T11:06:17.394Z,98846.41
2022-09-13T11:08:44.078Z,98841.09
2022-09-13T11:11:48.344Z,98841.34
2022-09-13T11:15:03.021Z,98833.09
2022-09-13T11:17:49.459Z,98844.59
2022-09-13T11:20:27.345Z,98845.69
2022-09-13T11:23:26.152Z,98848.22
2022-09-13T11:26:21.189Z,98848.56
2022-09-13T11:29:04.991Z,98844.63
2022-09-13T11:31:37.762Z,98854.78
2022-09-13T11:34:37.185Z,98847.25
2022-09-13T11:37:39.431Z,98849.44
2022-09-13T11:40:44.614Z,98861.06
2022-09-13T11:43:29.840Z,98858.16
2022-09-13T11:46:21.254Z,98854.19
2022-09-13T11:48:57.015Z,98863.84
2022-09-13T11:51:54.722Z,98861.28
2022-09-13T11:54:44.706Z,98869.63
2022-09-13T11:57:43.498Z,98858.53
2022-09-13T12:00:24.480Z,98867.44
2022-09-13T12:02:51.316Z,98869.41
2022-09-13T12:05:23.956Z,98870.91
2022-09-13T12:08:03.592Z,98874.47
2022-09-13T12:10:40.623Z,98869.66
2022-09-13T12:13:15.397Z,98877.28
2022-09-13T12:15:44.648Z,98874.44
2022-09-13T12:18:48.762Z,98874.22
2022-09-13T12:21:39.969Z,98877.09
2022-09-13T12:24:21.571Z,98874.44
2022-09-13T12:27:01.028Z,98878.41
2022-09-13T12:29:43.995Z,98878.69
2022-09-13T12:32:10.959Z,98880.25
2022-09-13T12:34:48.328Z,98891.13
2022-09-13T12:37:27.079Z,98887.84
2022-09-13T12:40:02.672Z,98889.78
2022-09-13T12:42:32.447Z,98882.88
2022-09-13T12:45:17.520Z,98883.47
2022-09-13T12:48:12.753Z,98889.03
2022-09-13T12:50:44.166Z,98889.13
2022-09-13T12:53:33.326Z,98885.09
2022-09-13T12:56:31.299Z,98883.38
2022-09-13T12:59:42.297Z,98884.56
2022-09-13T13:02:45.450Z,98886.13
2022-09-13T13:05:30.975Z,98892.50
2022-09-13T13:08:04.182Z,98895.88
2022-09-13T13:10:37.494Z,98889.59
2022-09-13T13:13:19.532Z,98888.75
2022-09-13T13:15:49.873Z,98888.88
2022-09-13T13:18:36.285Z,98896.25
2022-09-13T13:21:02.897Z,98889.81
2022-09-13T13:23:35.293Z,98883.13
2022-09-13T13:26:09.429Z,98882.84
2022-09-13T13:28:48.132Z,98887.66
2022-09-13T13:31:32.836Z,98883.34
2022-09-13T13:34:14.703Z,98883.84
2022-09-13T13:36:41.388Z,98891.03
2022-09-13T13:39:10.222Z,98892.00
2022-09-13T13:41:43.266Z,98899.66
2022-09-13T13:44:16.070Z,98889.47
2022-09-13T13:46:43.133Z,98890.94
2022-09-13T13:49:52.550Z,98884.84
2022-09-13T13:52:22.445Z,98892.38
2022-09-13T13:54:55.687Z,98893.72
2022-09-13T13:57:43.988Z,98889.56
2022-09-13T14:00:16.536Z,98889.53
2022-09-13T14:02:55.442Z,98888.91
2022-09-13T14:05:25.086Z,98894.53
2022-09-13T14:08:17.359Z,98885.22
2022-09-13T14:11:11.009Z,98893.47
2022-09-13T14:13:53.477Z,98882.81
2022-09-13T14:16:37.286Z,98893.72
2022-09-13T14:19:13.393Z,98894.13
2022-09-13T14:21:40.748Z,98902.09
2022-09-13T14:24:28.113Z,98904.56
2022-09-13T14:26:59.385Z,98907.00
2022-09-13T14:29:26.346Z,98910.22
2022-09-13T14:32:00.535Z,98912.53
2022-09-13T14:34:29.638Z,98911.56
2022-09-13T14:36:59.092Z,98919.09
2022-09-13T14:39:27.109Z,98921.44
2022-09-13T14:42:13.638Z,98918.56
2022-09-13T14:44:48.272Z,98918.66
2022-09-13T14:47:43.722Z,98920.63
2022-09-13T14:50:19.003Z,98918.72
2022-09-13T14:52:53.462Z,98928.81
2022-09-13T14:55:43.279Z,98923.13
2022-09-13T14:58:22.611Z,98921.75
2022-09-13T15:00:59.628Z,98924.69
2022-09-13T15:03:27.451Z,98926.91
2022-09-13T15:06:00.208Z,98928.94
2022-09-13T15:08:32.762Z,98921.06
2022-09-13T15:11:05.740Z,98924.00
2022-09-13T15:13:33.694Z,98919.75
2022-09-13T15:16:00.867Z,98921.66
2022-09-13T15:18:36.621Z,98921.00
2022-09-13T15:21:07.237Z,98920.91
2022-09-13T15:23:43.344Z,98923.75
2022-09-13T15:26:12.526Z,98914.38
2022-09-13T15:28:50.649Z,98914.75
2022-09-13T15:31:29.717Z,98911.75
2022-09-13T15:34:14.248Z,98914.69
2022-09-13T15:36:41.026Z,98913.00
2022-09-13T15:39:07.784Z,98912.34
2022-09-13T15:41:40.148Z,98917.75
2022-09-13T15:44:10.036Z,98921.34
2022-09-13T15:46:49.992Z,98913.50
2022-09-13T15:49:19.008Z,98915.50
2022-09-13T15:51:46.209Z,98919.09
2022-09-13T15:54:17.618Z,98920.81
2022-09-13T15:56:46.872Z,98914.78
2022-09-13T15:59:15.019Z,98906.91
2022-09-13T16:01:43.308Z,98893.75
2022-09-13T16:04:10.722Z,98895.13
2022-09-13T16:06:38.088Z,98902.69
2022-09-13T16:09:25.461Z,98909.59
2022-09-13T16:11:52.920Z,98909.59
2022-09-13T16:14:20.287Z,98909.59
2022-09-13T16:16:49.067Z,98907.81
2022-09-13T16:19:18.700Z,98920.09
2022-09-13T16:21:45.959Z,98914.78
2022-09-13T16:24:12.853Z,98915.66
2022-09-13T16:26:40.641Z,98920.97
2022-09-13T16:29:08.070Z,98925.41
2022-09-13T16:31:35.001Z,98927.03
2022-09-13T16:34:01.970Z,98927.78
2022-09-13T16:36:29.031Z,98937.34
2022-09-13T16:38:57.002Z,98930.25
2022-09-13T16:41:24.205Z,98933.63
2022-09-13T16:43:50.891Z,98928.25
2022-09-13T16:46:18.203Z,98933.53
2022-09-13T16:48:45.098Z,98931.75
2022-09-13T16:51:13.055Z,98937.06
2022-09-13T16:53:42.115Z,98936.19
2022-09-13T16:56:11.757Z,98937.16
2022-09-13T16:58:40.422Z,98935.25
2022-09-13T17:01:09.054Z,98931.84
2022-09-13T17:03:36.922Z,98930.97
2022-09-13T17:06:08.020Z,98928.47
2022-09-13T17:08:36.534Z,98921.44
2022-09-13T17:11:09.357Z,98920.50
2022-09-13T17:13:37.199Z,98912.75
2022-09-13T17:16:06.092Z,98907.72
2022-09-13T17:18:33.827Z,98917.34
2022-09-13T17:21:00.843Z,98912.06
2022-09-13T17:23:28.389Z,98924.38
2022-09-13T17:25:55.215Z,98909.31
2022-09-13T17:28:23.163Z,98915.56
2022-09-13T17:30:50.147Z,98914.69
2022-09-13T17:33:16.913Z,98915.56
2022-09-13T17:35:43.721Z,98916.41
2022-09-13T17:38:10.604Z,98922.56
2022-09-13T17:40:37.381Z,98920.78
2022-09-13T17:43:04.170Z,98916.31
2022-09-13T17:45:31.329Z,98914.50
2022-09-13T17:47:59.038Z,98911.88
2022-09-13T17:50:25.855Z,98912.75
2022-09-13T17:52:52.644Z,98910.09
2022-09-13T17:55:19.539Z,98915.28
2022-09-13T17:57:49.888Z,98916.97
2022-09-13T18:00:19.771Z,98913.28
2022-09-13T18:02:46.806Z,98923.16
2022-09-13T18:05:14.031Z,98912.31
2022-09-13T18:07:40.969Z,98919.25
2022-09-13T18:10:24.920Z,98916.53
2022-09-13T18:12:54.911Z,98915.59
2022-09-13T18:15:21.865Z,98917.19
2022-09-13T18:17:48.637Z,98920.63
2022-09-13T18:20:15.518Z,98914.44
2022-09-13T18:22:42.322Z,98907.22
2022-09-13T18:25:09.271Z,98905.44
2022-09-13T18:27:36.126Z,98908.75
2022-09-13T18:30:06.315Z,98904.28
2022-09-13T18:32:33.157Z,98906.84
2022-09-13T18:35:00.111Z,98900.59
2022-09-13T18:37:26.969Z,98898.78
2022-09-13T18:39:53.735Z,98891.88
2022-09-13T18:42:20.588Z,98898.88
2022-09-13T18:44:47.376Z,98886.47
2022-09-13T18:47:14.186Z,98896.22
2022-09-13T18:49:40.907Z,98893.56
2022-09-13T18:52:07.666Z,98894.53
2022-09-13T18:54:34.457Z,98893.66
2022-09-13T18:57:01.379Z,98887.31
2022-09-13T18:59:30.410Z,98892.72
2022-09-13T19:01:57.462Z,98883.94
2022-09-13T19:04:25.056Z,98888.16
2022-09-13T19:06:54.250Z,98888.16
2022-09-13T19:09:22.852Z,98876.72
2022-09-13T19:11:52.406Z,98881.19
2022-09-13T19:14:25.544Z,98876.72
2022-09-13T19:16:54.497Z,98874.25
2022-09-13T19:19:21.795Z,98877.66
2022-09-13T19:21:49.149Z,98868.94
2022-09-13T19:24:18.493Z,98859.16
2022-09-13T19:26:47.545Z,98869.78
2022-09-13T19:29:17.586Z,98857.50
2022-09-13T19:31:49.599Z,98858.34
2022-09-13T19:34:19.017Z,98857.50
2022-09-13T19:36:47.118Z,98853.88
2022-09-13T19:39:14.089Z,98853.03
2022-09-13T19:41:41.409Z,98850.38
2022-09-13T19:44:08.910Z,98852.19
2022-09-13T19:46:39.373Z,98851.22
2022-09-13T19:49:08.460Z,98853.03
2022-09-13T19:51:39.199Z,98860.03
2022-09-13T19:54:07.825Z,98851.22
2022-09-13T19:56:38.489Z,98850.38
2022-09-13T19:59:07.635Z,98843.34
2022-09-13T20:01:41.273Z,98852.19
2022-09-13T20:04:11.580Z,98852.28
2022-09-13T20:06:41.137Z,98855.78
2022-09-13T20:09:09.517Z,98855.88
2022-09-13T20:11:41.481Z,98855.03
2022-09-13T20:14:09.446Z,98860.44
2022-09-13T20:16:37.984Z,98858.81
2022-09-13T20:19:13.950Z,98863.19
2022-09-13T20:21:46.008Z,98870.22
2022-09-13T20:24:12.709Z,98871.97
2022-09-13T20:26:39.592Z,98874.53
2022-09-13T20:29:08.135Z,98882.41
2022-09-13T20:31:36.949Z,98872.63
2022-09-13T20:34:06.717Z,98870.75
2022-09-13T20:36:36.184Z,98872.44
2022-09-13T20:39:04.126Z,98874.16
2022-09-13T20:41:31.665Z,98868.94
2022-09-13T20:44:01.457Z,98869.69
2022-09-13T20:46:29.492Z,98873.31
2022-09-13T20:48:56.261Z,98871.50
2022-09-13T20:51:25.414Z,98875.97
2022-09-13T20:53:58.037Z,98878.63
2022-09-13T20:56:25.005Z,98880.50
2022-09-13T20:58:57.337Z,98876.91
2022-09-13T21:01:24.777Z,98880.59
2022-09-13T21:03:53.990Z,98884.22
2022-09-13T21:06:23.084Z,98877.94
2022-09-13T21:08:50.532Z,98880.59
2022-09-13T21:11:33.116Z,98883.06
2022-09-13T21:14:03.041Z,98879.47
2022-09-13T21:16:37.706Z,98880.19
2022-09-13T21:19:05.062Z,98881.06
2022-09-13T21:21:37.021Z,98877.44
2022-09-13T21:24:11.556Z,98870.47
2022-09-13T21:26:42.315Z,98868.66
2022-09-13T21:29:10.251Z,98876.59
2022-09-13T21:31:37.862Z,98871.50
2022-09-13T21:34:12.846Z,98870.66
2022-09-13T21:36:39.600Z,98864.38
2022-09-13T21:39:07.084Z,98862.69
2022-09-13T21:41:34.324Z,98860.88
2022-09-13T21:44:01.596Z,98856.63
2022-09-13T21:46:30.731Z,98864.56
2022-09-13T21:49:00.291Z,98863.75
2022-09-13T21:51:30.038Z,98860.25
2022-09-13T21:53:59.415Z,98862.13
2022-09-13T21:56:28.711Z,98855.88
2022-09-13T21:59:00.634Z,98856.72
2022-09-13T22:01:30.459Z,98857.78
2022-09-13T22:03:58.605Z,98860.53
2022-09-13T22:06:29.098Z,98854.38
2022-09-13T22:09:00.530Z,98849.19
2022-09-13T22:11:32.911Z,98854.47
2022-09-13T22:14:02.086Z,98855.41
2022-09-13T22:16:31.609Z,98855.41
2022-09-13T22:19:08.753Z,98858.91
2022-09-13T22:21:38.313Z,98856.25
2022-09-13T22:24:06.629Z,98850.28
2022-09-13T22:26:36.574Z,98845.75
2022-09-13T22:29:03.927Z,98855.41
2022-09-13T22:31:33.579Z,98856.44
2022-09-13T22:34:01.554Z,98846.69
2022-09-13T22:36:29.369Z,98852.88
2022-09-13T22:38:56.720Z,98847.63
2022-09-13T22:41:28.668Z,98856.53
2022-09-13T22:43:57.524Z,98852.28
2022-09-13T22:46:35.921Z,98847.81
2022-09-13T22:49:03.761Z,98854.75
2022-09-13T22:51:30.714Z,98846.63
2022-09-13T22:53:58.412Z,98849.19
2022-09-13T22:56:29.367Z,98842.16
2022-09-13T22:59:09.011Z,98847.56
2022-09-13T23:01:36.447Z,98834.19
2022-09-13T23:04:03.654Z,98835.13
2022-09-13T23:06:31.318Z,98833.53
2022-09-13T23:09:01.419Z,98832.66
2022-09-13T23:11:31.351Z,98834.38
2022-09-13T23:14:03.892Z,98833.63
2022-09-13T23:16:37.142Z,98830.09
2022-09-13T23:19:04.226Z,98829.16
2022-09-13T23:21:34.159Z,98835.50
2022-09-13T23:24:02.243Z,98822.91
2022-09-13T23:26:29.348Z,98830.78
2022-09-13T23:28:58.548Z,98828.91
2022-09-13T23:31:30.881Z,98826.16
2022-09-13T23:34:01.955Z,98815.44
2022-09-13T23:36:32.058Z,98819.91
2022-09-13T23:38:59.471Z,98811.72
2022-09-13T23:41:27.018Z,98817.00
2022-09-13T23:43:54.500Z,98812.47
2022-09-13T23:46:22.028Z,98810.66
2022-09-13T23:48:49.629Z,98813.22
2022-09-13T23:51:19.326Z,98810.56
2022-09-13T23:53:46.552Z,98814.25
2022-09-13T23:56:14.181Z,98813.63
2022-09-13T23:58:40.912Z,98812.47
